createdAt,value
2023-10-16T00:01:29.652Z,81.57
2023-10-16T00:03:58.202Z,82.24
2023-10-16T00:06:26.613Z,82.00
2023-10-16T00:08:57.105Z,81.86
2023-10-16T00:11:25.247Z,81.21
2023-10-16T00:13:57.533Z,80.83
2023-10-16T00:16:30.023Z,81.00
2023-10-16T00:18:59.103Z,80.60
2023-10-16T00:21:28.141Z,80.75
2023-10-16T00:23:56.512Z,81.15
2023-10-16T00:26:24.904Z,81.35
2023-10-16T00:29:14.340Z,81.58
2023-10-16T00:31:44.686Z,81.65
2023-10-16T00:34:21.376Z,81.20
2023-10-16T00:36:56.626Z,81.23
2023-10-16T00:39:30.404Z,81.88
2023-10-16T00:42:00.055Z,82.29
2023-10-16T00:44:35.770Z,82.33
2023-10-16T00:47:11.144Z,82.48
2023-10-16T00:49:40.343Z,82.21
2023-10-16T00:52:09.402Z,81.97
2023-10-16T00:54:41.450Z,81.85
2023-10-16T00:57:12.136Z,81.59
2023-10-16T00:59:42.416Z,81.35
2023-10-16T01:02:16.218Z,81.41
2023-10-16T01:04:45.511Z,81.16
2023-10-16T01:07:17.454Z,80.77
2023-10-16T01:09:49.255Z,81.22
2023-10-16T01:12:21.916Z,81.07
2023-10-16T01:14:50.564Z,80.97
2023-10-16T01:17:30.700Z,81.51
2023-10-16T01:19:59.095Z,81.61
2023-10-16T01:22:31.357Z,81.66
2023-10-16T01:25:02.779Z,81.82
2023-10-16T01:27:31.963Z,81.17
2023-10-16T01:30:03.783Z,81.18
2023-10-16T01:32:33.173Z,81.19
2023-10-16T01:35:02.093Z,81.32
2023-10-16T01:37:33.148Z,81.44
2023-10-16T01:40:20.081Z,81.69
2023-10-16T01:42:50.319Z,82.05
2023-10-16T01:45:21.359Z,82.23
2023-10-16T01:47:49.683Z,81.92
2023-10-16T01:50:28.668Z,82.10
2023-10-16T01:52:57.070Z,82.17
2023-10-16T01:55:27.349Z,81.86
2023-10-16T01:58:00.641Z,81.46
2023-10-16T02:00:35.879Z,81.54
2023-10-16T02:03:10.123Z,82.22
2023-10-16T02:05:42.768Z,82.09
2023-10-16T02:08:13.469Z,82.12
2023-10-16T02:10:43.214Z,82.17
2023-10-16T02:13:12.464Z,82.22
2023-10-16T02:15:41.271Z,82.40
2023-10-16T02:18:20.025Z,82.27
2023-10-16T02:20:52.334Z,82.29
2023-10-16T02:23:21.849Z,82.75
2023-10-16T02:25:50.180Z,82.79
2023-10-16T02:28:21.094Z,82.54
2023-10-16T02:30:50.867Z,82.70
2023-10-16T02:33:19.472Z,82.97
2023-10-16T02:35:51.411Z,83.26
2023-10-16T02:38:28.915Z,83.44
2023-10-16T02:41:04.838Z,83.56
2023-10-16T02:43:35.243Z,83.33
2023-10-16T02:46:05.117Z,83.50
2023-10-16T02:48:33.885Z,83.09
2023-10-16T02:51:03.988Z,83.37
2023-10-16T02:53:34.946Z,83.89
2023-10-16T02:56:07.182Z,84.01
2023-10-16T02:58:55.895Z,84.23
2023-10-16T03:01:24.210Z,84.03
2023-10-16T03:03:53.829Z,84.20
2023-10-16T03:06:22.366Z,84.01
2023-10-16T03:08:50.838Z,83.61
2023-10-16T03:11:22.189Z,83.92
2023-10-16T03:13:53.317Z,84.12
2023-10-16T03:16:28.451Z,84.32
2023-10-16T03:19:10.868Z,84.30
2023-10-16T03:21:41.356Z,84.07
2023-10-16T03:24:11.156Z,84.21
2023-10-16T03:26:43.720Z,84.38
2023-10-16T03:29:12.237Z,84.04
2023-10-16T03:31:41.414Z,84.18
2023-10-16T03:34:23.825Z,83.98
2023-10-16T03:36:56.568Z,83.84
2023-10-16T03:39:24.789Z,83.66
2023-10-16T03:41:52.983Z,83.65
2023-10-16T03:44:21.389Z,83.98
2023-10-16T03:46:50.633Z,83.96
2023-10-16T03:49:19.286Z,83.65
2023-10-16T03:51:48.211Z,83.58
2023-10-16T03:54:17.750Z,83.07
2023-10-16T03:56:47.247Z,82.45
2023-10-16T03:59:16.718Z,82.43
2023-10-16T04:01:45.506Z,82.55
2023-10-16T04:04:14.752Z,82.45
2023-10-16T04:06:43.359Z,82.17
2023-10-16T04:09:11.722Z,82.38
2023-10-16T04:11:39.911Z,82.15
2023-10-16T04:14:10.175Z,82.20
2023-10-16T04:16:44.503Z,82.81
2023-10-16T04:19:16.913Z,83.14
2023-10-16T04:21:53.246Z,82.81
2023-10-16T04:24:41.800Z,82.94
2023-10-16T04:27:09.992Z,82.86
2023-10-16T04:30:13.328Z,82.80
2023-10-16T04:32:48.808Z,82.71
2023-10-16T04:35:35.677Z,83.01
2023-10-16T04:38:28.688Z,83.09
2023-10-16T04:41:15.956Z,83.88
2023-10-16T04:44:02.919Z,84.32
2023-10-16T04:46:51.009Z,84.19
2023-10-16T04:49:19.734Z,84.28
2023-10-16T04:51:58.034Z,84.14
2023-10-16T04:54:29.545Z,84.06
2023-10-16T04:57:07.419Z,84.05
2023-10-16T04:59:38.691Z,84.65
2023-10-16T05:02:35.007Z,84.69
2023-10-16T05:05:04.058Z,83.98
2023-10-16T05:07:57.480Z,83.50
2023-10-16T05:10:45.054Z,83.29
2023-10-16T05:13:34.514Z,84.06
2023-10-16T05:16:22.459Z,84.46
2023-10-16T05:19:05.056Z,83.66
2023-10-16T05:21:53.662Z,83.45
2023-10-16T05:24:41.200Z,80.21
2023-10-16T05:27:30.721Z,77.37
2023-10-16T05:30:17.863Z,74.79
2023-10-16T05:33:05.125Z,74.48
2023-10-16T05:35:52.203Z,73.03
2023-10-16T05:38:46.866Z,73.26
2023-10-16T05:41:34.517Z,72.31
2023-10-16T05:44:21.740Z,70.55
2023-10-16T05:47:08.753Z,68.87
2023-10-16T05:49:57.463Z,68.37
2023-10-16T05:52:44.868Z,63.34
2023-10-16T05:55:32.106Z,62.55
2023-10-16T05:58:20.028Z,55.59
2023-10-16T06:01:09.621Z,55.70
2023-10-16T06:03:58.514Z,53.20
2023-10-16T06:06:49.927Z,52.27
2023-10-16T06:09:43.080Z,51.77
2023-10-16T06:12:40.743Z,50.68
2023-10-16T06:15:27.140Z,48.39
2023-10-16T06:18:18.574Z,45.21
2023-10-16T06:21:27.975Z,41.83
2023-10-16T06:24:30.092Z,41.18
2023-10-16T06:27:29.078Z,41.08
2023-10-16T06:33:22.263Z,37.71
2023-10-16T06:36:04.357Z,37.79
2023-10-16T06:38:47.255Z,36.38
2023-10-16T06:48:27.299Z,34.98
2023-10-16T06:51:45.851Z,34.52
2023-10-16T06:54:32.800Z,32.67
2023-10-16T06:58:09.698Z,32.89
2023-10-16T07:00:54.069Z,32.18
2023-10-16T07:06:42.055Z,30.32
2023-10-16T07:09:23.256Z,30.42
2023-10-16T07:12:08.352Z,30.56
2023-10-16T07:15:02.679Z,32.59
2023-10-16T07:17:33.736Z,34.90
2023-10-16T07:20:29.393Z,35.72
2023-10-16T07:23:11.323Z,35.53
2023-10-16T07:25:52.830Z,34.27
2023-10-16T07:28:28.175Z,31.65
2023-10-16T07:30:58.453Z,31.26
2023-10-16T07:33:29.491Z,29.96
2023-10-16T07:36:00.562Z,29.27
2023-10-16T07:38:33.027Z,29.58
2023-10-16T07:41:13.546Z,28.75
2023-10-16T07:43:48.139Z,27.44
2023-10-16T07:46:29.323Z,27.23
2023-10-16T07:49:11.472Z,26.63
2023-10-16T07:51:52.952Z,27.10
2023-10-16T07:54:27.207Z,28.80
2023-10-16T07:56:59.602Z,30.59
2023-10-16T07:59:29.664Z,32.59
2023-10-16T08:02:01.038Z,33.86
2023-10-16T08:04:30.953Z,35.38
2023-10-16T08:07:11.435Z,35.90
2023-10-16T08:09:41.871Z,35.05
2023-10-16T08:12:22.060Z,34.32
2023-10-16T08:14:55.824Z,32.59
2023-10-16T08:17:27.999Z,31.87
2023-10-16T08:20:10.899Z,31.97
2023-10-16T08:22:39.496Z,30.34
2023-10-16T08:25:31.949Z,29.91
2023-10-16T08:28:21.196Z,29.84
2023-10-16T08:30:50.998Z,30.75
2023-10-16T08:33:30.500Z,30.37
2023-10-16T08:35:59.712Z,29.43
2023-10-16T08:38:28.290Z,29.56
2023-10-16T08:40:59.024Z,31.12
2023-10-16T08:43:47.741Z,30.96
2023-10-16T08:46:25.482Z,30.37
2023-10-16T08:48:54.352Z,30.57
2023-10-16T08:51:29.516Z,30.63
2023-10-16T08:54:04.828Z,29.50
2023-10-16T08:56:34.264Z,31.07
2023-10-16T08:59:06.139Z,31.36
2023-10-16T09:01:36.137Z,30.83
2023-10-16T09:04:14.676Z,32.49
2023-10-16T09:06:45.252Z,31.00
2023-10-16T09:09:17.671Z,30.42
2023-10-16T09:11:48.848Z,32.96
2023-10-16T09:14:22.609Z,33.46
2023-10-16T09:17:00.641Z,35.13
2023-10-16T09:19:35.956Z,36.00
2023-10-16T09:22:10.341Z,35.93
2023-10-16T09:24:51.922Z,35.93
2023-10-16T09:27:50.072Z,36.87
2023-10-16T09:30:29.695Z,35.71
2023-10-16T09:32:59.687Z,32.71
2023-10-16T09:35:46.912Z,29.68
2023-10-16T09:38:46.160Z,27.61
2023-10-16T09:41:31.392Z,26.89
2023-10-16T09:44:10.743Z,26.09
2023-10-16T09:46:45.577Z,25.47
2023-10-16T09:49:30.123Z,25.66
2023-10-16T09:52:07.463Z,24.46
2023-10-16T09:54:38.250Z,24.15
2023-10-16T09:57:09.646Z,22.76
2023-10-16T09:59:42.285Z,22.50
2023-10-16T10:02:19.537Z,20.87
2023-10-16T10:05:01.136Z,19.85
2023-10-16T10:07:39.528Z,19.74
2023-10-16T10:10:33.053Z,19.77
2023-10-16T10:13:17.058Z,18.85
2023-10-16T10:15:50.012Z,18.61
2023-10-16T10:18:46.794Z,18.39
2023-10-16T10:21:29.392Z,18.17
2023-10-16T10:24:03.941Z,17.73
2023-10-16T10:26:34.969Z,17.64
2023-10-16T10:29:10.925Z,17.25
2023-10-16T10:31:43.108Z,16.25
2023-10-16T10:34:25.883Z,16.60
2023-10-16T10:36:55.345Z,16.76
2023-10-16T10:39:24.315Z,16.81
2023-10-16T10:41:59.697Z,16.48
2023-10-16T10:44:32.275Z,16.36
2023-10-16T10:47:05.593Z,16.03
2023-10-16T10:49:35.532Z,15.59
2023-10-16T10:52:08.631Z,15.07
2023-10-16T10:54:43.965Z,15.05
2023-10-16T10:57:19.881Z,15.14
2023-10-16T11:00:04.208Z,14.45
2023-10-16T11:02:32.333Z,15.34
2023-10-16T11:05:24.024Z,14.78
2023-10-16T11:08:12.174Z,15.18
2023-10-16T11:10:45.548Z,14.01
2023-10-16T11:13:16.233Z,14.75
2023-10-16T11:15:48.565Z,15.52
2023-10-16T11:18:22.783Z,15.31
2023-10-16T11:21:12.479Z,15.87
2023-10-16T11:23:41.592Z,17.38
2023-10-16T11:26:18.020Z,18.85
2023-10-16T11:28:50.018Z,19.23
2023-10-16T11:31:20.343Z,20.45
2023-10-16T11:34:02.581Z,21.68
2023-10-16T11:36:37.446Z,22.66
2023-10-16T11:39:08.912Z,22.77
2023-10-16T11:41:37.845Z,23.67
2023-10-16T11:44:14.561Z,24.22
2023-10-16T11:46:47.995Z,25.11
2023-10-16T11:49:22.383Z,25.41
2023-10-16T11:51:50.616Z,26.69
2023-10-16T11:54:21.561Z,27.24
2023-10-16T11:56:58.226Z,27.70
2023-10-16T11:59:29.687Z,27.59
2023-10-16T12:02:04.503Z,28.96
2023-10-16T12:04:34.072Z,28.59
2023-10-16T12:07:03.036Z,29.55
2023-10-16T12:09:44.311Z,31.14
2023-10-16T12:12:22.122Z,30.28
2023-10-16T12:14:51.834Z,31.49
2023-10-16T12:17:21.037Z,32.11
2023-10-16T12:19:53.775Z,32.06
2023-10-16T12:22:22.849Z,32.55
2023-10-16T12:24:51.537Z,32.87
2023-10-16T12:27:20.105Z,32.66
2023-10-16T12:29:48.413Z,33.32
2023-10-16T12:32:16.566Z,33.46
2023-10-16T12:34:44.778Z,33.93
2023-10-16T12:37:13.633Z,33.65
2023-10-16T12:39:48.627Z,33.33
2023-10-16T12:42:17.571Z,33.85
2023-10-16T12:44:46.287Z,33.24
2023-10-16T12:47:31.822Z,33.82
2023-10-16T12:50:05.947Z,34.46
2023-10-16T12:52:34.831Z,35.29
2023-10-16T12:55:03.349Z,35.32
2023-10-16T12:57:31.941Z,36.11
2023-10-16T13:00:00.141Z,36.31
2023-10-16T13:02:28.434Z,36.94
2023-10-16T13:05:02.853Z,37.39
2023-10-16T13:07:42.372Z,37.67
2023-10-16T13:10:17.765Z,38.02
2023-10-16T13:12:46.006Z,37.88
2023-10-16T13:15:26.088Z,38.44
2023-10-16T13:17:55.261Z,39.50
2023-10-16T13:20:30.575Z,39.35
2023-10-16T13:22:59.615Z,39.22
2023-10-16T13:25:36.265Z,39.49
2023-10-16T13:28:05.158Z,39.29
2023-10-16T13:30:34.283Z,40.31
2023-10-16T13:33:08.616Z,41.46
2023-10-16T13:35:41.063Z,41.67
2023-10-16T13:38:10.558Z,41.64
2023-10-16T13:40:40.177Z,42.29
2023-10-16T13:43:17.715Z,42.36
2023-10-16T13:45:45.977Z,42.46
2023-10-16T13:48:16.540Z,42.64
2023-10-16T13:50:48.879Z,43.14
2023-10-16T13:53:21.224Z,43.34
2023-10-16T13:55:55.752Z,44.00
2023-10-16T13:58:24.208Z,44.18
2023-10-16T14:00:52.672Z,44.34
2023-10-16T14:03:22.326Z,44.11
2023-10-16T14:05:53.640Z,44.33
2023-10-16T14:08:43.157Z,44.92
2023-10-16T14:11:13.293Z,45.48
2023-10-16T14:13:41.548Z,45.23
2023-10-16T14:16:19.449Z,45.63
2023-10-16T14:18:47.951Z,46.78
2023-10-16T14:21:17.939Z,47.11
2023-10-16T14:23:46.276Z,46.70
2023-10-16T14:26:23.768Z,47.07
2023-10-16T14:28:55.856Z,47.24
2023-10-16T14:31:27.189Z,47.53
2023-10-16T14:33:57.871Z,47.09
2023-10-16T14:36:26.890Z,47.64
2023-10-16T14:38:55.913Z,47.53
2023-10-16T14:41:27.159Z,48.37
2023-10-16T14:43:56.411Z,48.39
2023-10-16T14:46:26.954Z,48.69
2023-10-16T14:48:55.596Z,49.31
2023-10-16T14:51:23.899Z,49.15
2023-10-16T14:53:53.730Z,49.99
2023-10-16T14:56:24.052Z,50.31
2023-10-16T15:01:25.209Z,50.67
2023-10-16T15:03:55.421Z,50.62
2023-10-16T15:06:24.296Z,50.68
2023-10-16T15:08:55.165Z,51.52
2023-10-16T15:11:27.348Z,51.88
2023-10-16T15:13:55.726Z,52.09
2023-10-16T15:16:23.886Z,52.14
2023-10-16T15:18:52.547Z,52.54
2023-10-16T15:21:20.795Z,52.39
2023-10-16T15:23:49.069Z,53.37
2023-10-16T15:26:17.223Z,53.12
2023-10-16T15:28:47.027Z,53.16
2023-10-16T15:31:17.718Z,53.38
2023-10-16T15:33:46.576Z,53.86
2023-10-16T15:36:19.626Z,54.02
2023-10-16T15:38:49.366Z,54.33
2023-10-16T15:41:17.642Z,54.43
2023-10-16T15:43:50.077Z,55.31
2023-10-16T15:46:21.761Z,55.58
2023-10-16T15:48:50.071Z,55.56
2023-10-16T15:51:19.080Z,56.52
2023-10-16T15:53:51.938Z,57.10
2023-10-16T15:56:23.485Z,56.83
2023-10-16T15:58:52.905Z,57.26
2023-10-16T16:01:21.506Z,57.69
2023-10-16T16:03:50.546Z,57.93
2023-10-16T16:06:20.848Z,58.91
2023-10-16T16:08:49.464Z,58.65
2023-10-16T16:11:20.761Z,59.82
2023-10-16T16:13:50.739Z,59.92
2023-10-16T16:16:21.861Z,60.47
2023-10-16T16:18:50.332Z,61.71
2023-10-16T16:21:18.428Z,61.79
2023-10-16T16:23:46.764Z,61.35
2023-10-16T16:26:15.040Z,61.49
2023-10-16T16:28:47.365Z,62.42
2023-10-16T16:31:17.495Z,62.01
2023-10-16T16:33:46.163Z,62.51
2023-10-16T16:36:16.173Z,62.92
2023-10-16T16:38:45.352Z,63.33
2023-10-16T16:41:13.948Z,64.22
2023-10-16T16:43:42.374Z,64.95
2023-10-16T16:46:10.806Z,64.90
2023-10-16T16:48:39.131Z,64.66
2023-10-16T16:51:07.733Z,65.23
2023-10-16T16:53:39.080Z,66.05
2023-10-16T16:56:08.030Z,66.81
2023-10-16T16:58:36.274Z,67.54
2023-10-16T17:01:04.530Z,67.66
2023-10-16T17:03:32.833Z,68.03
2023-10-16T17:06:02.272Z,68.98
2023-10-16T17:08:30.571Z,69.94
2023-10-16T17:10:59.638Z,69.32
2023-10-16T17:13:27.872Z,69.31
2023-10-16T17:15:57.830Z,69.07
2023-10-16T17:18:29.772Z,68.59
2023-10-16T17:21:02.446Z,68.84
2023-10-16T17:23:33.440Z,68.70
2023-10-16T17:26:02.394Z,69.14
2023-10-16T17:28:32.062Z,68.69
2023-10-16T17:31:00.521Z,69.70
2023-10-16T17:33:31.887Z,69.21
2023-10-16T17:36:02.091Z,68.60
2023-10-16T17:38:31.006Z,68.83
2023-10-16T17:41:03.188Z,68.99
2023-10-16T17:43:31.894Z,68.38
2023-10-16T17:46:00.575Z,67.98
2023-10-16T17:48:28.865Z,67.30
2023-10-16T17:50:57.200Z,67.71
2023-10-16T17:53:26.663Z,66.90
2023-10-16T17:55:56.209Z,67.00
2023-10-16T17:58:26.094Z,66.59
2023-10-16T18:00:57.430Z,65.92
2023-10-16T18:03:33.030Z,65.74
2023-10-16T18:06:03.994Z,66.31
2023-10-16T18:08:32.303Z,66.71
2023-10-16T18:11:01.483Z,67.26
2023-10-16T18:13:33.860Z,67.31
2023-10-16T18:16:04.449Z,66.98
2023-10-16T18:18:35.057Z,67.00
2023-10-16T18:21:04.380Z,67.08
2023-10-16T18:23:33.356Z,67.57
2023-10-16T18:26:01.676Z,67.80
2023-10-16T18:28:33.087Z,67.62
2023-10-16T18:31:01.924Z,67.96
2023-10-16T18:33:35.526Z,68.23
2023-10-16T18:36:05.424Z,68.25
2023-10-16T18:38:33.633Z,68.41
2023-10-16T18:41:12.565Z,68.37
2023-10-16T18:43:40.743Z,69.10
2023-10-16T18:46:09.987Z,69.10
2023-10-16T18:48:40.236Z,69.24
2023-10-16T18:51:11.560Z,69.28
2023-10-16T18:53:39.791Z,69.39
2023-10-16T18:56:09.447Z,69.41
2023-10-16T18:58:37.762Z,68.54
2023-10-16T19:01:06.412Z,68.57
2023-10-16T19:03:34.936Z,68.12
2023-10-16T19:06:07.600Z,68.48
2023-10-16T19:08:36.265Z,68.51
2023-10-16T19:11:05.317Z,68.63
2023-10-16T19:13:33.690Z,68.71
2023-10-16T19:16:02.469Z,68.71
2023-10-16T19:18:33.083Z,69.22
2023-10-16T19:21:02.770Z,69.13
2023-10-16T19:23:35.430Z,70.22
2023-10-16T19:26:06.200Z,71.12
2023-10-16T19:28:35.522Z,71.68
2023-10-16T19:31:05.576Z,72.01
2023-10-16T19:33:38.110Z,71.86
2023-10-16T19:36:14.281Z,72.49
2023-10-16T19:38:45.838Z,72.69
2023-10-16T19:41:17.972Z,72.56
2023-10-16T19:43:48.976Z,72.65
2023-10-16T19:46:18.837Z,72.74
2023-10-16T19:48:50.558Z,72.50
2023-10-16T19:51:22.537Z,72.43
2023-10-16T19:53:56.539Z,72.83
2023-10-16T19:56:25.439Z,72.62
2023-10-16T19:58:54.030Z,72.91
2023-10-16T20:01:23.694Z,72.96
2023-10-16T20:03:54.350Z,72.88
2023-10-16T20:06:30.645Z,72.50
2023-10-16T20:08:59.254Z,72.36
2023-10-16T20:11:29.090Z,72.48
2023-10-16T20:13:57.684Z,72.49
2023-10-16T20:16:26.090Z,72.97
2023-10-16T20:18:54.321Z,72.69
2023-10-16T20:21:25.395Z,72.70
2023-10-16T20:23:54.715Z,72.63
2023-10-16T20:26:24.097Z,73.10
2023-10-16T20:28:53.166Z,72.82
2023-10-16T20:31:22.889Z,73.11
2023-10-16T20:33:51.271Z,73.16
2023-10-16T20:36:20.732Z,73.71
2023-10-16T20:38:51.842Z,73.69
2023-10-16T20:41:20.426Z,73.64
2023-10-16T20:43:48.643Z,73.50
2023-10-16T20:46:16.866Z,73.36
2023-10-16T20:48:45.092Z,73.84
2023-10-16T20:51:13.311Z,74.11
2023-10-16T20:53:41.634Z,73.77
2023-10-16T20:56:10.599Z,73.83
2023-10-16T20:58:38.734Z,73.86
2023-10-16T21:01:10.765Z,74.07
2023-10-16T21:03:42.419Z,74.03
2023-10-16T21:06:14.248Z,74.14
2023-10-16T21:08:42.531Z,74.05
2023-10-16T21:11:10.586Z,74.34
2023-10-16T21:13:38.829Z,74.98
2023-10-16T21:16:07.280Z,74.78
2023-10-16T21:18:35.493Z,74.75
2023-10-16T21:21:04.758Z,75.32
2023-10-16T21:23:32.837Z,75.43
2023-10-16T21:26:01.107Z,75.22
2023-10-16T21:28:29.241Z,75.05
2023-10-16T21:30:58.400Z,74.82
2023-10-16T21:33:27.401Z,74.71
2023-10-16T21:36:05.489Z,74.33
2023-10-16T21:38:33.743Z,73.97
2023-10-16T21:41:02.450Z,74.40
2023-10-16T21:43:31.119Z,74.85
2023-10-16T21:45:59.562Z,74.82
2023-10-16T21:48:27.887Z,75.17
2023-10-16T21:50:56.285Z,75.10
2023-10-16T21:53:25.463Z,74.80
2023-10-16T21:55:53.842Z,74.50
2023-10-16T21:58:21.929Z,74.73
2023-10-16T22:00:59.703Z,74.61
2023-10-16T22:03:28.679Z,74.56
2023-10-16T22:05:58.220Z,74.65
2023-10-16T22:08:29.886Z,74.47
2023-10-16T22:11:02.263Z,74.29
2023-10-16T22:13:30.836Z,73.64
2023-10-16T22:16:00.367Z,73.43
2023-10-16T22:18:29.277Z,73.21
2023-10-16T22:21:04.013Z,73.29
2023-10-16T22:23:39.369Z,72.98
2023-10-16T22:26:07.519Z,73.37
2023-10-16T22:28:35.543Z,73.65
2023-10-16T22:31:06.568Z,73.71
2023-10-16T22:33:34.703Z,73.85
2023-10-16T22:36:03.174Z,73.88
2023-10-16T22:38:32.377Z,74.46
2023-10-16T22:41:01.922Z,74.89
2023-10-16T22:43:30.259Z,74.73
2023-10-16T22:45:58.908Z,74.92
2023-10-16T22:48:29.361Z,76.33
2023-10-16T22:50:57.687Z,77.03
2023-10-16T22:53:26.261Z,75.62
2023-10-16T22:55:54.503Z,75.60
2023-10-16T22:58:22.520Z,75.80
2023-10-16T23:00:50.913Z,75.29
2023-10-16T23:03:19.009Z,74.52
2023-10-16T23:05:47.244Z,74.70
2023-10-16T23:08:16.344Z,74.44
2023-10-16T23:10:47.490Z,74.32
2023-10-16T23:13:15.570Z,73.77
2023-10-16T23:15:46.635Z,73.93
2023-10-16T23:18:20.162Z,74.20
2023-10-16T23:20:52.319Z,74.27
2023-10-16T23:23:27.259Z,74.59
2023-10-16T23:26:00.029Z,74.68
2023-10-16T23:28:28.716Z,74.58
2023-10-16T23:30:57.351Z,74.81
2023-10-16T23:33:26.313Z,75.50
2023-10-16T23:36:01.239Z,75.40
2023-10-16T23:38:30.366Z,75.74
2023-10-16T23:41:05.237Z,75.67
2023-10-16T23:43:52.516Z,75.70
2023-10-16T23:46:28.138Z,75.68
2023-10-16T23:49:09.173Z,75.65
2023-10-16T23:51:37.648Z,75.49
2023-10-16T23:54:15.777Z,75.35
2023-10-16T23:57:10.493Z,75.22
2023-10-16T23:59:40.085Z,75.22
